createdAt,value
2023-06-11T00:01:21.019Z,101664.25
2023-06-11T00:03:48.648Z,101662.84
2023-06-11T00:06:16.138Z,101663.97
2023-06-11T00:08:43.478Z,101664.06
2023-06-11T00:11:10.756Z,101671.94
2023-06-11T00:13:38.078Z,101674.94
2023-06-11T00:16:07.239Z,101667.03
2023-06-11T00:18:34.653Z,101669.25
2023-06-11T00:21:02.016Z,101675.16
2023-06-11T00:23:29.404Z,101669.66
2023-06-11T00:25:56.797Z,101665.78
2023-06-11T00:28:24.293Z,101666.13
2023-06-11T00:30:51.586Z,101666.22
2023-06-11T00:33:20.234Z,101668.69
2023-06-11T00:35:47.496Z,101666.78
2023-06-11T00:38:14.846Z,101669.47
2023-06-11T00:40:42.100Z,101669.59
2023-06-11T00:43:09.351Z,101667.13
2023-06-11T00:45:36.654Z,101665.53
2023-06-11T00:48:04.492Z,101670.19
2023-06-11T00:50:33.437Z,101666.75
2023-06-11T00:53:00.684Z,101669.84
2023-06-11T00:55:27.975Z,101662.31
2023-06-11T00:57:55.301Z,101668.28
2023-06-11T01:00:22.820Z,101665.31
2023-06-11T01:02:58.052Z,101668.19
2023-06-11T01:05:28.060Z,101670.63
2023-06-11T01:07:57.015Z,101668.75
2023-06-11T01:10:24.389Z,101669.13
2023-06-11T01:12:51.658Z,101678.13
2023-06-11T01:15:18.993Z,101671.22
2023-06-11T01:17:51.505Z,101676.50
2023-06-11T01:20:24.971Z,101681.03
2023-06-11T01:23:18.727Z,101680.78
2023-06-11T01:25:55.516Z,101679.22
2023-06-11T01:28:29.422Z,101680.81
2023-06-11T01:31:00.967Z,101681.56
2023-06-11T01:33:28.517Z,101688.53
2023-06-11T01:35:55.834Z,101694.16
2023-06-11T01:38:23.055Z,101693.31
2023-06-11T01:40:50.363Z,101700.53
2023-06-11T01:43:17.699Z,101700.38
2023-06-11T01:45:46.306Z,101691.41
2023-06-11T01:48:13.532Z,101694.44
2023-06-11T01:50:40.765Z,101693.69
2023-06-11T01:53:08.058Z,101695.78
2023-06-11T01:55:35.279Z,101691.41
2023-06-11T01:58:02.617Z,101695.75
2023-06-11T02:00:29.922Z,101687.03
2023-06-11T02:02:58.669Z,101689.28
2023-06-11T02:05:25.977Z,101689.81
2023-06-11T02:07:53.227Z,101691.97
2023-06-11T02:10:20.484Z,101696.84
2023-06-11T02:12:47.822Z,101692.13
2023-06-11T02:15:15.614Z,101694.50
2023-06-11T02:17:42.678Z,101699.03
2023-06-11T02:20:11.908Z,101698.19
2023-06-11T02:22:39.176Z,101698.69
2023-06-11T02:25:07.576Z,101697.34
2023-06-11T02:27:34.898Z,101703.88
2023-06-11T02:30:02.243Z,101703.88
2023-06-11T02:32:29.583Z,101699.19
2023-06-11T02:34:57.118Z,101699.03
2023-06-11T02:37:25.760Z,101701.03
2023-06-11T02:42:21.594Z,101707.22
2023-06-11T02:44:48.899Z,101701.88
2023-06-11T02:47:16.190Z,101707.41
2023-06-11T02:49:43.495Z,101713.56
2023-06-11T02:52:10.735Z,101701.19
2023-06-11T02:54:39.378Z,101711.41
2023-06-11T02:57:06.719Z,101714.38
2023-06-11T02:59:34.067Z,101716.72
2023-06-11T03:02:01.341Z,101722.13
2023-06-11T03:04:28.606Z,101719.47
2023-06-11T03:06:55.820Z,101716.75
2023-06-11T03:09:23.102Z,101718.59
2023-06-11T03:11:51.831Z,101720.88
2023-06-11T03:14:19.128Z,101724.69
2023-06-11T03:16:46.341Z,101719.59
2023-06-11T03:19:13.643Z,101717.28
2023-06-11T03:21:40.913Z,101720.59
2023-06-11T03:24:08.313Z,101723.75
2023-06-11T03:26:35.665Z,101724.03
2023-06-11T03:29:04.337Z,101725.44
2023-06-11T03:31:31.645Z,101721.59
2023-06-11T03:33:58.988Z,101724.47
2023-06-11T03:36:26.203Z,101716.22
2023-06-11T03:38:53.527Z,101722.25
2023-06-11T03:41:20.836Z,101729.63
2023-06-11T03:43:48.075Z,101727.97
2023-06-11T03:46:16.751Z,101728.31
2023-06-11T03:48:44.043Z,101731.28
2023-06-11T03:51:11.481Z,101734.97
2023-06-11T03:53:38.715Z,101734.69
2023-06-11T03:56:06.076Z,101732.31
2023-06-11T03:58:33.412Z,101731.84
2023-06-11T04:01:00.751Z,101738.00
2023-06-11T04:03:29.578Z,101737.34
2023-06-11T04:05:56.955Z,101732.00
2023-06-11T04:08:24.211Z,101737.69
2023-06-11T04:10:51.574Z,101744.91
2023-06-11T04:13:18.963Z,101739.69
2023-06-11T04:15:46.209Z,101743.88
2023-06-11T04:18:13.603Z,101748.06
2023-06-11T04:20:42.294Z,101748.25
2023-06-11T04:23:09.534Z,101747.09
2023-06-11T04:25:36.790Z,101751.06
2023-06-11T04:28:04.405Z,101752.09
2023-06-11T04:30:31.695Z,101748.06
2023-06-11T04:32:59.034Z,101760.81
2023-06-11T04:35:26.332Z,101753.09
2023-06-11T04:37:54.964Z,101756.47
2023-06-11T04:40:23.920Z,101756.63
2023-06-11T04:42:51.177Z,101754.78
2023-06-11T04:45:18.549Z,101745.41
2023-06-11T04:47:46.058Z,101752.13
2023-06-11T04:50:13.499Z,101747.44
2023-06-11T04:52:40.788Z,101738.06
2023-06-11T04:55:10.415Z,101747.44
2023-06-11T04:57:37.897Z,101754.44
2023-06-11T05:00:06.657Z,101756.97
2023-06-11T05:02:33.955Z,101749.50
2023-06-11T05:05:01.272Z,101750.00
2023-06-11T05:07:28.552Z,101752.44
2023-06-11T05:09:55.851Z,101756.97
2023-06-11T05:12:24.502Z,101755.59
2023-06-11T05:14:51.756Z,101756.63
2023-06-11T05:17:19.085Z,101749.63
2023-06-11T05:19:46.414Z,101752.59
2023-06-11T05:22:13.741Z,101749.38
2023-06-11T05:24:41.070Z,101756.59
2023-06-11T05:27:08.383Z,101748.69
2023-06-11T05:29:37.149Z,101757.31
2023-06-11T05:32:05.616Z,101750.69
2023-06-11T05:34:32.914Z,101755.72
2023-06-11T05:37:00.194Z,101762.75
2023-06-11T05:39:27.529Z,101755.72
2023-06-11T05:41:54.776Z,101758.00
2023-06-11T05:44:22.029Z,101758.00
2023-06-11T05:46:50.719Z,101764.38
2023-06-11T05:49:18.038Z,101763.09
2023-06-11T05:51:45.280Z,101755.63
2023-06-11T05:54:12.617Z,101761.25
2023-06-11T05:56:39.994Z,101758.97
2023-06-11T05:59:07.250Z,101762.44
2023-06-11T06:01:34.523Z,101762.00
2023-06-11T06:04:03.479Z,101764.25
2023-06-11T06:06:30.842Z,101761.13
2023-06-11T06:08:58.340Z,101768.84
2023-06-11T06:11:26.098Z,101761.56
2023-06-11T06:13:53.383Z,101765.88
2023-06-11T06:16:20.784Z,101766.63
2023-06-11T06:18:48.099Z,101762.81
2023-06-11T06:21:16.915Z,101771.63
2023-06-11T06:23:44.201Z,101775.00
2023-06-11T06:26:11.471Z,101771.56
2023-06-11T06:28:38.710Z,101769.03
2023-06-11T06:31:06.729Z,101767.50
2023-06-11T06:33:33.985Z,101770.56
2023-06-11T06:36:01.245Z,101764.44
2023-06-11T06:38:29.950Z,101767.88
2023-06-11T06:40:57.282Z,101772.06
2023-06-11T06:43:24.548Z,101766.06
2023-06-11T06:45:51.864Z,101769.81
2023-06-11T06:48:19.186Z,101768.06
2023-06-11T06:50:46.504Z,101766.09
2023-06-11T06:53:13.926Z,101763.50
2023-06-11T06:55:42.566Z,101769.25
2023-06-11T06:58:09.817Z,101774.81
2023-06-11T07:00:37.230Z,101768.06
2023-06-11T07:03:04.640Z,101771.72
2023-06-11T07:05:31.960Z,101773.66
2023-06-11T07:07:59.345Z,101784.78
2023-06-11T07:10:26.655Z,101775.88
2023-06-11T07:12:56.606Z,101774.38
2023-06-11T07:15:26.029Z,101772.56
2023-06-11T07:17:53.347Z,101771.09
2023-06-11T07:20:20.949Z,101773.53
2023-06-11T07:22:48.034Z,101773.09
2023-06-11T07:25:15.315Z,101772.69
2023-06-11T07:27:42.603Z,101772.97
2023-06-11T07:30:12.797Z,101768.59
2023-06-11T07:32:40.404Z,101763.19
2023-06-11T07:35:08.122Z,101777.13
2023-06-11T07:37:35.380Z,101771.22
2023-06-11T07:40:02.758Z,101768.25
2023-06-11T07:42:30.089Z,101771.72
2023-06-11T07:44:57.529Z,101771.84
2023-06-11T07:47:26.245Z,101776.22
2023-06-11T07:49:53.541Z,101774.34
2023-06-11T07:52:20.912Z,101777.66
2023-06-11T07:54:48.167Z,101769.78
2023-06-11T07:57:15.405Z,101766.25
2023-06-11T07:59:42.913Z,101769.78
2023-06-11T08:02:10.377Z,101768.56
2023-06-11T08:04:39.216Z,101761.69
2023-06-11T08:07:06.653Z,101756.91
2023-06-11T08:09:34.262Z,101765.44
2023-06-11T08:12:01.534Z,101761.09
2023-06-11T08:14:28.836Z,101757.31
2023-06-11T08:16:56.180Z,101758.31
2023-06-11T08:19:23.613Z,101772.41
2023-06-11T08:21:52.367Z,101761.97
2023-06-11T08:24:19.539Z,101769.28
2023-06-11T08:26:46.868Z,101768.75
2023-06-11T08:29:14.247Z,101768.31
2023-06-11T08:31:41.522Z,101767.84
2023-06-11T08:34:08.865Z,101767.41
2023-06-11T08:36:36.356Z,101755.97
2023-06-11T08:39:05.122Z,101758.59
2023-06-11T08:41:32.567Z,101764.06
2023-06-11T08:44:00.336Z,101755.38
2023-06-11T08:46:28.344Z,101753.63
2023-06-11T08:48:59.073Z,101750.59
2023-06-11T08:51:28.033Z,101752.19
2023-06-11T08:53:55.312Z,101753.34
2023-06-11T08:56:25.597Z,101750.31
2023-06-11T08:58:54.226Z,101752.59
2023-06-11T09:01:22.887Z,101743.47
2023-06-11T09:03:50.204Z,101742.75
2023-06-11T09:06:18.764Z,101750.84
2023-06-11T09:08:59.088Z,101738.03
2023-06-11T09:11:33.653Z,101739.44
2023-06-11T09:14:01.269Z,101735.38
2023-06-11T09:16:28.936Z,101732.75
2023-06-11T09:18:56.684Z,101731.81
2023-06-11T09:21:24.925Z,101734.16
2023-06-11T09:23:52.540Z,101729.44
2023-06-11T09:26:19.931Z,101723.66
2023-06-11T09:28:50.397Z,101720.47
2023-06-11T09:31:19.491Z,101717.84
2023-06-11T09:33:46.988Z,101722.47
2023-06-11T09:36:17.338Z,101715.06
2023-06-11T09:38:46.712Z,101719.16
2023-06-11T09:41:14.121Z,101718.13
2023-06-11T09:43:41.483Z,101710.25
2023-06-11T09:46:11.702Z,101713.06
2023-06-11T09:48:41.457Z,101709.34
2023-06-11T09:51:09.298Z,101705.19
2023-06-11T09:53:37.428Z,101713.47
2023-06-11T09:56:11.117Z,101721.56
2023-06-11T09:58:40.560Z,101714.75
2023-06-11T10:01:11.319Z,101719.06
2023-06-11T10:03:39.054Z,101723.78
2023-06-11T10:06:12.291Z,101715.44
2023-06-11T10:08:41.577Z,101726.34
2023-06-11T10:11:09.354Z,101724.06
2023-06-11T10:13:37.027Z,101726.31
2023-06-11T10:16:08.400Z,101724.59
2023-06-11T10:18:37.276Z,101717.97
2023-06-11T10:21:05.348Z,101716.00
2023-06-11T10:23:36.486Z,101709.06
2023-06-11T10:26:04.163Z,101698.78
2023-06-11T10:28:38.781Z,101700.97
2023-06-11T10:31:06.449Z,101710.00
2023-06-11T10:33:43.158Z,101703.22
2023-06-11T10:36:10.731Z,101698.81
2023-06-11T10:38:38.599Z,101690.09
2023-06-11T10:41:06.271Z,101694.94
2023-06-11T10:43:37.122Z,101705.50
2023-06-11T10:46:05.513Z,101714.78
2023-06-11T10:48:32.985Z,101697.41
2023-06-11T10:51:05.302Z,101705.88
2023-06-11T10:53:39.801Z,101697.66
2023-06-11T10:56:07.573Z,101699.31
2023-06-11T10:58:35.416Z,101692.78
2023-06-11T11:01:02.969Z,101688.28
2023-06-11T11:03:31.430Z,101697.81
2023-06-11T11:05:58.826Z,101693.34
2023-06-11T11:08:27.759Z,101688.13
2023-06-11T11:10:55.701Z,101690.63
2023-06-11T11:13:23.852Z,101690.63
2023-06-11T11:15:51.954Z,101692.03
2023-06-11T11:18:19.291Z,101688.84
2023-06-11T11:20:46.607Z,101695.56
2023-06-11T11:23:14.026Z,101697.09
2023-06-11T11:25:42.727Z,101685.09
2023-06-11T11:28:11.568Z,101691.22
2023-06-11T11:30:39.232Z,101684.69
2023-06-11T11:33:06.891Z,101679.97
2023-06-11T11:35:45.062Z,101679.41
2023-06-11T11:38:12.359Z,101681.63
2023-06-11T11:40:39.770Z,101682.06
2023-06-11T11:43:12.054Z,101668.59
2023-06-11T11:45:39.367Z,101665.97
2023-06-11T11:48:08.338Z,101656.41
2023-06-11T11:50:35.662Z,101660.94
2023-06-11T11:53:04.684Z,101668.03
2023-06-11T11:55:34.542Z,101661.91
2023-06-11T11:58:04.098Z,101661.72
2023-06-11T12:00:33.014Z,101663.34
2023-06-11T12:03:07.193Z,101656.09
2023-06-11T12:05:34.961Z,101650.44
2023-06-11T12:08:02.676Z,101656.50
2023-06-11T12:10:29.976Z,101659.72
2023-06-11T12:12:58.351Z,101658.66
2023-06-11T12:15:25.656Z,101654.13
2023-06-11T12:17:54.569Z,101650.06
2023-06-11T12:20:22.088Z,101645.63
2023-06-11T12:22:50.041Z,101648.78
2023-06-11T12:25:17.433Z,101651.84
2023-06-11T12:27:44.822Z,101652.56
2023-06-11T12:30:13.272Z,101648.97
2023-06-11T12:32:41.137Z,101645.50
2023-06-11T12:35:10.492Z,101643.84
2023-06-11T12:37:37.762Z,101641.88
2023-06-11T12:40:06.409Z,101644.16
2023-06-11T12:42:33.777Z,101642.94
2023-06-11T12:45:01.099Z,101638.53
2023-06-11T12:47:28.377Z,101634.81
2023-06-11T12:49:55.949Z,101633.66
2023-06-11T12:52:26.228Z,101636.78
2023-06-11T12:54:53.794Z,101637.47
2023-06-11T12:57:21.103Z,101633.56
2023-06-11T12:59:48.349Z,101637.56
2023-06-11T13:02:18.356Z,101623.41
2023-06-11T13:04:46.817Z,101631.41
2023-06-11T13:07:14.232Z,101626.91
2023-06-11T13:09:43.085Z,101631.44
2023-06-11T13:12:10.756Z,101627.13
2023-06-11T13:14:38.118Z,101621.69
2023-06-11T13:17:05.806Z,101607.84
2023-06-11T13:19:33.098Z,101619.81
2023-06-11T13:22:01.028Z,101623.78
2023-06-11T13:24:28.487Z,101619.28
2023-06-11T13:26:57.127Z,101616.75
2023-06-11T13:29:24.500Z,101624.06
2023-06-11T13:31:51.831Z,101620.34
2023-06-11T13:34:19.442Z,101617.09
2023-06-11T13:36:47.205Z,101604.88
2023-06-11T13:39:14.474Z,101608.50
2023-06-11T13:41:41.940Z,101611.88
2023-06-11T13:44:10.564Z,101606.34
2023-06-11T13:46:37.829Z,101607.44
2023-06-11T13:49:04.917Z,101604.00
2023-06-11T13:51:32.137Z,101604.22
2023-06-11T13:53:59.943Z,101597.03
2023-06-11T13:56:28.517Z,101593.53
2023-06-11T13:58:56.821Z,101595.56
2023-06-11T14:01:25.465Z,101603.06
2023-06-11T14:03:53.863Z,101600.16
2023-06-11T14:06:22.526Z,101601.81
2023-06-11T14:08:50.243Z,101600.47
2023-06-11T14:11:17.574Z,101602.63
2023-06-11T14:13:45.105Z,101596.56
2023-06-11T14:16:14.728Z,101591.59
2023-06-11T14:18:43.407Z,101592.56
2023-06-11T14:21:10.680Z,101590.88
2023-06-11T14:23:41.013Z,101589.34
2023-06-11T14:26:08.542Z,101591.94
2023-06-11T14:28:38.987Z,101589.88
2023-06-11T14:31:06.291Z,101590.69
2023-06-11T14:33:33.753Z,101596.72
2023-06-11T14:36:06.208Z,101586.63
2023-06-11T14:38:33.988Z,101583.81
2023-06-11T14:41:01.482Z,101587.66
2023-06-11T14:43:29.042Z,101583.13
2023-06-11T14:45:57.617Z,101584.56
2023-06-11T14:48:25.899Z,101580.00
2023-06-11T14:50:53.165Z,101583.91
2023-06-11T14:53:21.874Z,101576.56
2023-06-11T14:55:50.234Z,101571.63
2023-06-11T14:58:17.518Z,101568.34
2023-06-11T15:00:44.851Z,101566.09
2023-06-11T15:03:16.209Z,101563.34
2023-06-11T15:05:43.437Z,101560.72
2023-06-11T15:08:10.697Z,101570.38
2023-06-11T15:10:40.482Z,101562.22
2023-06-11T15:13:07.941Z,101563.31
2023-06-11T15:15:35.048Z,101555.28
2023-06-11T15:18:02.330Z,101555.94
2023-06-11T15:20:29.830Z,101557.13
2023-06-11T15:22:57.162Z,101555.50
2023-06-11T15:25:25.506Z,101559.97
2023-06-11T15:27:54.213Z,101555.84
2023-06-11T15:30:21.894Z,101544.19
2023-06-11T15:32:50.350Z,101546.63
2023-06-11T15:35:17.964Z,101541.56
2023-06-11T15:37:45.259Z,101542.84
2023-06-11T15:40:12.958Z,101547.69
2023-06-11T15:42:40.447Z,101540.47
2023-06-11T15:45:10.562Z,101538.97
2023-06-11T15:47:39.540Z,101538.41
2023-06-11T15:50:08.138Z,101538.66
2023-06-11T15:52:35.440Z,101540.47
2023-06-11T15:55:03.480Z,101533.47
2023-06-11T15:57:30.720Z,101541.91
2023-06-11T15:59:57.852Z,101530.53
2023-06-11T16:02:26.753Z,101542.78
2023-06-11T16:04:54.160Z,101542.06
2023-06-11T16:07:22.807Z,101541.03
2023-06-11T16:09:50.076Z,101532.81
2023-06-11T16:12:17.325Z,101531.31
2023-06-11T16:14:44.410Z,101530.66
2023-06-11T16:17:11.736Z,101539.97
2023-06-11T16:19:40.370Z,101535.09
2023-06-11T16:22:09.801Z,101531.72
2023-06-11T16:24:39.449Z,101535.50
2023-06-11T16:27:07.582Z,101533.25
2023-06-11T16:29:34.892Z,101538.34
2023-06-11T16:32:02.254Z,101541.56
2023-06-11T16:34:29.573Z,101538.75
2023-06-11T16:37:00.767Z,101534.66
2023-06-11T16:39:28.957Z,101534.50
2023-06-11T16:41:56.697Z,101528.69
2023-06-11T16:44:24.296Z,101532.38
2023-06-11T16:46:52.512Z,101539.97
2023-06-11T16:49:19.886Z,101533.03
2023-06-11T16:51:47.434Z,101524.91
2023-06-11T16:54:19.339Z,101528.28
2023-06-11T16:56:46.749Z,101535.97
2023-06-11T16:59:15.445Z,101525.22
2023-06-11T17:01:43.838Z,101529.50
2023-06-11T17:04:11.889Z,101528.66
2023-06-11T17:06:41.586Z,101523.19
2023-06-11T17:09:09.042Z,101530.53
2023-06-11T17:11:39.944Z,101527.56
2023-06-11T17:14:07.473Z,101523.53
2023-06-11T17:16:34.875Z,101522.81
2023-06-11T17:19:02.163Z,101523.41
2023-06-11T17:21:29.769Z,101527.91
2023-06-11T17:23:57.059Z,101531.50
2023-06-11T17:26:25.723Z,101525.13
2023-06-11T17:28:54.594Z,101532.22
2023-06-11T17:31:21.910Z,101527.38
2023-06-11T17:33:49.194Z,101532.34
2023-06-11T17:36:16.491Z,101526.91
2023-06-11T17:38:45.271Z,101523.34
2023-06-11T17:41:12.588Z,101523.47
2023-06-11T17:43:40.021Z,101522.16
2023-06-11T17:46:09.125Z,101527.00
2023-06-11T17:48:36.400Z,101526.41
2023-06-11T17:51:03.505Z,101524.06
2023-06-11T17:53:31.145Z,101526.06
2023-06-11T17:55:58.514Z,101523.69
2023-06-11T17:58:25.812Z,101521.31
2023-06-11T18:00:52.866Z,101519.91
2023-06-11T18:03:21.396Z,101528.31
2023-06-11T18:05:48.906Z,101520.66
2023-06-11T18:08:16.179Z,101524.19
2023-06-11T18:10:43.481Z,101526.47
2023-06-11T18:13:10.578Z,101522.53
2023-06-11T18:15:39.108Z,101525.56
2023-06-11T18:18:08.457Z,101528.88
2023-06-11T18:20:37.221Z,101528.50
2023-06-11T18:23:04.494Z,101527.84
2023-06-11T18:25:31.826Z,101527.16
2023-06-11T18:27:59.301Z,101521.50
2023-06-11T18:30:26.352Z,101527.38
2023-06-11T18:32:53.629Z,101526.84
2023-06-11T18:35:20.756Z,101526.41
2023-06-11T18:37:49.354Z,101523.69
2023-06-11T18:40:16.878Z,101525.59
2023-06-11T18:42:44.611Z,101529.91
2023-06-11T18:45:11.901Z,101527.50
2023-06-11T18:47:39.461Z,101527.72
2023-06-11T18:50:08.122Z,101523.56
2023-06-11T18:52:35.395Z,101536.94
2023-06-11T18:55:04.854Z,101535.59
2023-06-11T18:57:32.159Z,101531.03
2023-06-11T19:00:00.491Z,101531.28
2023-06-11T19:02:28.201Z,101534.50
2023-06-11T19:04:55.588Z,101544.72
2023-06-11T19:07:22.646Z,101540.78
2023-06-11T19:09:49.830Z,101540.25
2023-06-11T19:12:18.874Z,101544.94
2023-06-11T19:14:46.196Z,101554.34
2023-06-11T19:17:13.806Z,101548.25
2023-06-11T19:19:42.186Z,101545.59
2023-06-11T19:22:09.485Z,101553.44
2023-06-11T19:24:36.789Z,101548.13
2023-06-11T19:27:04.914Z,101547.66
2023-06-11T19:29:33.571Z,101545.75
2023-06-11T19:32:01.125Z,101545.88
2023-06-11T19:34:28.645Z,101549.44
2023-06-11T19:36:56.010Z,101552.13
2023-06-11T19:39:23.356Z,101554.03
2023-06-11T19:41:50.443Z,101550.72
2023-06-11T19:44:17.814Z,101559.28
2023-06-11T19:46:46.752Z,101553.69
2023-06-11T19:49:14.088Z,101574.50
2023-06-11T19:51:41.342Z,101568.34
2023-06-11T19:54:08.651Z,101577.00
2023-06-11T19:56:36.976Z,101577.06
2023-06-11T19:59:04.208Z,101579.63
2023-06-11T20:01:31.517Z,101579.22
2023-06-11T20:04:00.283Z,101581.72
2023-06-11T20:06:27.702Z,101575.66
2023-06-11T20:08:54.753Z,101575.84
2023-06-11T20:11:21.982Z,101589.59
2023-06-11T20:13:49.244Z,101588.16
2023-06-11T20:16:16.566Z,101592.13
2023-06-11T20:18:43.831Z,101597.25
2023-06-11T20:21:12.419Z,101599.75
2023-06-11T20:23:39.946Z,101606.19
2023-06-11T20:26:07.235Z,101600.38
2023-06-11T20:28:34.488Z,101594.13
2023-06-11T20:31:01.796Z,101597.81
2023-06-11T20:33:29.335Z,101608.19
2023-06-11T20:35:56.628Z,101602.56
2023-06-11T20:38:25.286Z,101612.34
2023-06-11T20:40:52.992Z,101611.13
2023-06-11T20:43:20.264Z,101609.63
2023-06-11T20:45:57.621Z,101607.16
2023-06-11T20:48:25.714Z,101614.44
2023-06-11T20:50:53.388Z,101621.25
2023-06-11T20:53:33.298Z,101619.16
2023-06-11T20:56:04.485Z,101623.00
2023-06-11T20:58:31.854Z,101620.50
2023-06-11T21:00:59.145Z,101618.84
2023-06-11T21:03:26.569Z,101622.38
2023-06-11T21:05:54.132Z,101618.41
2023-06-11T21:08:21.306Z,101622.09
2023-06-11T21:10:48.980Z,101626.13
2023-06-11T21:13:17.712Z,101625.09
2023-06-11T21:15:46.482Z,101623.06
2023-06-11T21:18:13.813Z,101622.31
2023-06-11T21:20:41.123Z,101625.31
2023-06-11T21:23:08.466Z,101630.19
2023-06-11T21:25:35.876Z,101627.97
2023-06-11T21:28:03.101Z,101633.13
2023-06-11T21:30:31.685Z,101636.69
2023-06-11T21:33:02.341Z,101640.03
2023-06-11T21:35:29.797Z,101630.81
2023-06-11T21:37:58.999Z,101641.03
2023-06-11T21:40:26.335Z,101640.81
2023-06-11T21:42:53.629Z,101641.84
2023-06-11T21:45:22.105Z,101641.63
2023-06-11T21:47:50.815Z,101641.56
2023-06-11T21:50:18.396Z,101651.34
2023-06-11T21:52:45.676Z,101649.31
2023-06-11T21:55:12.991Z,101653.03
2023-06-11T21:57:40.269Z,101656.09
2023-06-11T22:00:08.720Z,101641.69
2023-06-11T22:02:36.133Z,101644.84
2023-06-11T22:05:05.397Z,101652.16
2023-06-11T22:07:32.864Z,101658.81
2023-06-11T22:10:00.231Z,101646.63
2023-06-11T22:12:27.492Z,101655.47
2023-06-11T22:14:54.800Z,101650.00
2023-06-11T22:17:22.167Z,101658.19
2023-06-11T22:19:49.499Z,101658.16
2023-06-11T22:22:18.140Z,101659.38
2023-06-11T22:24:45.477Z,101664.31
2023-06-11T22:27:12.720Z,101665.41
2023-06-11T22:29:40.597Z,101670.78
2023-06-11T22:32:08.781Z,101670.22
2023-06-11T22:34:36.120Z,101672.72
2023-06-11T22:37:03.404Z,101674.13
2023-06-11T22:39:32.047Z,101674.50
2023-06-11T22:41:59.280Z,101675.63
2023-06-11T22:44:26.526Z,101676.09
2023-06-11T22:46:53.871Z,101669.22
2023-06-11T22:49:21.220Z,101671.00
2023-06-11T22:51:48.480Z,101679.16
2023-06-11T22:54:15.861Z,101682.66
2023-06-11T22:56:44.495Z,101673.41
2023-06-11T22:59:11.775Z,101687.88
2023-06-11T23:01:39.105Z,101676.78
2023-06-11T23:04:06.444Z,101685.50
2023-06-11T23:06:33.671Z,101679.75
2023-06-11T23:09:00.967Z,101682.72
2023-06-11T23:11:28.296Z,101688.13
2023-06-11T23:13:56.893Z,101688.91
2023-06-11T23:16:24.130Z,101694.28
2023-06-11T23:18:51.476Z,101697.84
2023-06-11T23:21:18.733Z,101699.16
2023-06-11T23:23:45.996Z,101693.59
2023-06-11T23:26:13.227Z,101691.09
2023-06-11T23:28:40.556Z,101686.06
2023-06-11T23:31:09.271Z,101685.13
2023-06-11T23:33:36.515Z,101693.56
2023-06-11T23:36:04.284Z,101691.41
2023-06-11T23:38:43.678Z,101690.91
2023-06-11T23:41:11.025Z,101686.91
2023-06-11T23:43:38.290Z,101689.91
2023-06-11T23:46:05.755Z,101686.75
2023-06-11T23:48:34.433Z,101693.19
2023-06-11T23:51:01.711Z,101693.72
2023-06-11T23:53:29.021Z,101691.69
2023-06-11T23:55:56.297Z,101691.34
2023-06-11T23:58:24.152Z,101699.81
